sensor_id;sensor_type;location;lat;lon;timestamp;P1;durP1;ratioP1;P2;durP2;ratioP2
59161;SDS011;44942;48.936;8.260;2023-04-03T00:04:57;6.20;;;3.67;;
59161;SDS011;44942;48.936;8.260;2023-04-03T00:09:57;5.77;;;3.67;;
59161;SDS011;44942;48.936;8.260;2023-04-03T00:14:58;5.07;;;3.20;;
59161;SDS011;44942;48.936;8.260;2023-04-03T00:19:58;5.37;;;3.53;;
59161;SDS011;44942;48.936;8.260;2023-04-03T00:24:59;3.70;;;2.93;;
59161;SDS011;44942;48.936;8.260;2023-04-03T00:30:00;4.17;;;3.20;;
59161;SDS011;44942;48.936;8.260;2023-04-03T00:35:00;3.83;;;2.93;;
59161;SDS011;44942;48.936;8.260;2023-04-03T00:40:01;3.80;;;2.90;;
59161;SDS011;44942;48.936;8.260;2023-04-03T00:50:04;4.03;;;2.70;;
59161;SDS011;44942;48.936;8.260;2023-04-03T00:55:05;4.28;;;2.83;;
59161;SDS011;44942;48.936;8.260;2023-04-03T01:00:10;3.45;;;2.47;;
59161;SDS011;44942;48.936;8.260;2023-04-03T01:05:13;2.92;;;2.50;;
59161;SDS011;44942;48.936;8.260;2023-04-03T01:10:17;2.83;;;2.50;;
59161;SDS011;44942;48.936;8.260;2023-04-03T01:15:21;2.97;;;2.55;;
59161;SDS011;44942;48.936;8.260;2023-04-03T01:25:43;3.63;;;2.70;;
59161;SDS011;44942;48.936;8.260;2023-04-03T01:31:08;3.78;;;2.67;;
59161;SDS011;44942;48.936;8.260;2023-04-03T01:36:26;3.50;;;2.90;;
59161;SDS011;44942;48.936;8.260;2023-04-03T01:41:28;3.30;;;2.92;;
59161;SDS011;44942;48.936;8.260;2023-04-03T01:46:29;3.20;;;2.85;;
59161;SDS011;44942;48.936;8.260;2023-04-03T01:51:30;3.40;;;2.67;;
59161;SDS011;44942;48.936;8.260;2023-04-03T01:56:31;3.70;;;2.97;;
59161;SDS011;44942;48.936;8.260;2023-04-03T02:01:31;3.20;;;2.80;;
59161;SDS011;44942;48.936;8.260;2023-04-03T02:06:32;2.90;;;2.60;;
59161;SDS011;44942;48.936;8.260;2023-04-03T02:11:32;4.10;;;3.07;;
59161;SDS011;44942;48.936;8.260;2023-04-03T02:16:33;2.60;;;2.40;;
59161;SDS011;44942;48.936;8.260;2023-04-03T02:21:34;3.83;;;3.00;;
59161;SDS011;44942;48.936;8.260;2023-04-03T02:26:34;6.73;;;2.87;;
59161;SDS011;44942;48.936;8.260;2023-04-03T02:31:35;8.00;;;2.80;;
59161;SDS011;44942;48.936;8.260;2023-04-03T02:36:35;2.90;;;2.50;;
59161;SDS011;44942;48.936;8.260;2023-04-03T02:41:36;3.73;;;2.50;;
59161;SDS011;44942;48.936;8.260;2023-04-03T02:46:37;3.10;;;2.70;;
59161;SDS011;44942;48.936;8.260;2023-04-03T02:51:37;5.53;;;2.80;;
59161;SDS011;44942;48.936;8.260;2023-04-03T02:56:38;3.90;;;2.70;;
59161;SDS011;44942;48.936;8.260;2023-04-03T03:01:38;3.00;;;2.70;;
59161;SDS011;44942;48.936;8.260;2023-04-03T03:06:39;3.20;;;2.90;;
59161;SDS011;44942;48.936;8.260;2023-04-03T03:11:40;3.37;;;2.63;;
59161;SDS011;44942;48.936;8.260;2023-04-03T03:16:40;3.10;;;2.73;;
59161;SDS011;44942;48.936;8.260;2023-04-03T03:21:41;3.17;;;2.70;;
59161;SDS011;44942;48.936;8.260;2023-04-03T03:26:42;3.50;;;2.93;;
59161;SDS011;44942;48.936;8.260;2023-04-03T03:31:43;3.15;;;2.65;;
59161;SDS011;44942;48.936;8.260;2023-04-03T03:36:43;2.93;;;2.63;;
59161;SDS011;44942;48.936;8.260;2023-04-03T03:41:44;3.20;;;2.90;;
59161;SDS011;44942;48.936;8.260;2023-04-03T03:46:45;2.75;;;2.53;;
59161;SDS011;44942;48.936;8.260;2023-04-03T03:51:46;3.23;;;2.50;;
59161;SDS011;44942;48.936;8.260;2023-04-03T03:56:46;3.53;;;2.70;;
59161;SDS011;44942;48.936;8.260;2023-04-03T04:01:47;3.57;;;2.70;;
59161;SDS011;44942;48.936;8.260;2023-04-03T04:06:48;3.40;;;2.90;;
59161;SDS011;44942;48.936;8.260;2023-04-03T04:11:48;2.50;;;2.30;;
59161;SDS011;44942;48.936;8.260;2023-04-03T04:16:49;3.13;;;2.83;;
59161;SDS011;44942;48.936;8.260;2023-04-03T04:21:49;2.80;;;2.60;;
59161;SDS011;44942;48.936;8.260;2023-04-03T04:26:50;3.00;;;2.70;;
59161;SDS011;44942;48.936;8.260;2023-04-03T04:31:51;2.80;;;2.50;;
59161;SDS011;44942;48.936;8.260;2023-04-03T04:36:51;2.67;;;2.40;;
59161;SDS011;44942;48.936;8.260;2023-04-03T04:41:52;4.93;;;2.73;;
59161;SDS011;44942;48.936;8.260;2023-04-03T04:46:52;7.13;;;2.73;;
59161;SDS011;44942;48.936;8.260;2023-04-03T04:51:53;4.53;;;2.47;;
59161;SDS011;44942;48.936;8.260;2023-04-03T04:56:54;6.53;;;2.97;;
59161;SDS011;44942;48.936;8.260;2023-04-03T05:01:54;7.28;;;3.20;;
59161;SDS011;44942;48.936;8.260;2023-04-03T05:06:55;6.20;;;3.07;;
59161;SDS011;44942;48.936;8.260;2023-04-03T05:11:56;7.43;;;3.13;;
59161;SDS011;44942;48.936;8.260;2023-04-03T05:16:56;5.70;;;3.10;;
59161;SDS011;44942;48.936;8.260;2023-04-03T05:21:57;4.78;;;3.15;;
59161;SDS011;44942;48.936;8.260;2023-04-03T05:26:58;5.50;;;3.00;;
59161;SDS011;44942;48.936;8.260;2023-04-03T05:31:59;7.32;;;3.17;;
59161;SDS011;44942;48.936;8.260;2023-04-03T05:36:59;9.23;;;3.40;;
59161;SDS011;44942;48.936;8.260;2023-04-03T05:42:00;5.30;;;2.90;;
59161;SDS011;44942;48.936;8.260;2023-04-03T05:47:01;6.72;;;3.40;;
59161;SDS011;44942;48.936;8.260;2023-04-03T05:52:02;4.00;;;3.03;;
59161;SDS011;44942;48.936;8.260;2023-04-03T05:57:03;4.73;;;3.00;;
59161;SDS011;44942;48.936;8.260;2023-04-03T06:02:03;16.57;;;3.30;;
59161;SDS011;44942;48.936;8.260;2023-04-03T06:07:04;13.15;;;3.30;;
59161;SDS011;44942;48.936;8.260;2023-04-03T06:12:05;11.13;;;2.80;;
59161;SDS011;44942;48.936;8.260;2023-04-03T06:17:06;4.93;;;2.95;;
59161;SDS011;44942;48.936;8.260;2023-04-03T06:22:08;5.90;;;2.72;;
59161;SDS011;44942;48.936;8.260;2023-04-03T06:27:09;3.93;;;2.87;;
59161;SDS011;44942;48.936;8.260;2023-04-03T06:32:10;4.95;;;2.70;;
59161;SDS011;44942;48.936;8.260;2023-04-03T06:37:17;4.40;;;2.93;;
59161;SDS011;44942;48.936;8.260;2023-04-03T06:42:20;6.63;;;3.30;;
59161;SDS011;44942;48.936;8.260;2023-04-03T06:47:21;7.75;;;2.90;;
59161;SDS011;44942;48.936;8.260;2023-04-03T06:52:21;8.23;;;3.30;;
59161;SDS011;44942;48.936;8.260;2023-04-03T06:57:22;6.68;;;2.90;;
59161;SDS011;44942;48.936;8.260;2023-04-03T07:02:23;4.10;;;2.80;;
59161;SDS011;44942;48.936;8.260;2023-04-03T07:07:23;4.10;;;2.70;;
59161;SDS011;44942;48.936;8.260;2023-04-03T07:12:24;6.00;;;3.07;;
59161;SDS011;44942;48.936;8.260;2023-04-03T07:17:25;4.93;;;2.85;;
59161;SDS011;44942;48.936;8.260;2023-04-03T07:27:27;3.73;;;2.10;;
59161;SDS011;44942;48.936;8.260;2023-04-03T07:32:28;4.43;;;2.90;;
59161;SDS011;44942;48.936;8.260;2023-04-03T07:37:29;3.92;;;2.60;;
59161;SDS011;44942;48.936;8.260;2023-04-03T07:42:30;4.23;;;2.87;;
59161;SDS011;44942;48.936;8.260;2023-04-03T07:47:30;3.97;;;2.87;;
59161;SDS011;44942;48.936;8.260;2023-04-03T07:52:31;4.57;;;2.72;;
59161;SDS011;44942;48.936;8.260;2023-04-03T07:57:32;3.50;;;2.57;;
59161;SDS011;44942;48.936;8.260;2023-04-03T08:02:32;4.13;;;2.60;;
59161;SDS011;44942;48.936;8.260;2023-04-03T08:07:35;3.87;;;2.60;;
59161;SDS011;44942;48.936;8.260;2023-04-03T08:12:37;3.80;;;2.90;;
59161;SDS011;44942;48.936;8.260;2023-04-03T08:17:38;3.93;;;2.67;;
59161;SDS011;44942;48.936;8.260;2023-04-03T08:22:38;3.10;;;2.63;;
59161;SDS011;44942;48.936;8.260;2023-04-03T08:27:39;3.53;;;2.70;;
59161;SDS011;44942;48.936;8.260;2023-04-03T08:32:40;4.27;;;2.90;;
59161;SDS011;44942;48.936;8.260;2023-04-03T08:37:42;3.30;;;2.80;;
59161;SDS011;44942;48.936;8.260;2023-04-03T08:47:59;4.75;;;2.80;;
59161;SDS011;44942;48.936;8.260;2023-04-03T08:53:22;4.13;;;2.80;;
59161;SDS011;44942;48.936;8.260;2023-04-03T08:58:29;3.25;;;2.70;;
59161;SDS011;44942;48.936;8.260;2023-04-03T09:03:51;3.40;;;2.85;;
59161;SDS011;44942;48.936;8.260;2023-04-03T09:14:15;2.97;;;2.63;;
59161;SDS011;44942;48.936;8.260;2023-04-03T09:25:02;3.88;;;2.97;;
59161;SDS011;44942;48.936;8.260;2023-04-03T09:30:20;3.05;;;2.75;;
59161;SDS011;44942;48.936;8.260;2023-04-03T09:35:25;3.70;;;2.65;;
59161;SDS011;44942;48.936;8.260;2023-04-03T09:40:32;4.60;;;2.70;;
59161;SDS011;44942;48.936;8.260;2023-04-03T09:45:40;3.00;;;2.70;;
59161;SDS011;44942;48.936;8.260;2023-04-03T09:55:56;2.95;;;2.75;;
59161;SDS011;44942;48.936;8.260;2023-04-03T10:00:58;2.75;;;2.53;;
59161;SDS011;44942;48.936;8.260;2023-04-03T10:06:01;4.70;;;2.90;;
59161;SDS011;44942;48.936;8.260;2023-04-03T10:16:12;3.08;;;2.63;;
59161;SDS011;44942;48.936;8.260;2023-04-03T10:21:24;7.38;;;2.05;;
59161;SDS011;44942;48.936;8.260;2023-04-03T10:26:54;4.97;;;1.88;;
59161;SDS011;44942;48.936;8.260;2023-04-03T10:37:30;3.78;;;2.35;;
59161;SDS011;44942;48.936;8.260;2023-04-03T10:42:49;3.10;;;2.35;;
59161;SDS011;44942;48.936;8.260;2023-04-03T10:48:11;3.45;;;2.40;;
59161;SDS011;44942;48.936;8.260;2023-04-03T10:59:12;10.88;;;2.65;;
59161;SDS011;44942;48.936;8.260;2023-04-03T11:04:34;3.70;;;2.70;;
59161;SDS011;44942;48.936;8.260;2023-04-03T11:09:40;3.47;;;2.50;;
59161;SDS011;44942;48.936;8.260;2023-04-03T11:14:42;3.03;;;2.60;;
59161;SDS011;44942;48.936;8.260;2023-04-03T11:30:16;4.25;;;2.80;;
59161;SDS011;44942;48.936;8.260;2023-04-03T11:35:33;3.35;;;2.58;;
59161;SDS011;44942;48.936;8.260;2023-04-03T11:40:35;3.25;;;2.63;;
59161;SDS011;44942;48.936;8.260;2023-04-03T11:45:48;3.25;;;2.90;;
59161;SDS011;44942;48.936;8.260;2023-04-03T11:50:51;3.10;;;2.80;;
59161;SDS011;44942;48.936;8.260;2023-04-03T11:55:53;3.17;;;2.67;;
59161;SDS011;44942;48.936;8.260;2023-04-03T12:16:22;5.63;;;3.10;;
59161;SDS011;44942;48.936;8.260;2023-04-03T12:37:30;4.40;;;2.83;;
59161;SDS011;44942;48.936;8.260;2023-04-03T12:48:15;3.67;;;3.00;;
59161;SDS011;44942;48.936;8.260;2023-04-03T12:58:23;3.60;;;3.30;;
59161;SDS011;44942;48.936;8.260;2023-04-03T13:03:26;3.10;;;2.80;;
59161;SDS011;44942;48.936;8.260;2023-04-03T13:08:27;3.83;;;3.15;;
59161;SDS011;44942;48.936;8.260;2023-04-03T13:13:28;3.35;;;3.03;;
59161;SDS011;44942;48.936;8.260;2023-04-03T13:18:35;3.13;;;2.73;;
59161;SDS011;44942;48.936;8.260;2023-04-03T13:23:38;3.35;;;2.95;;
59161;SDS011;44942;48.936;8.260;2023-04-03T13:28:42;3.40;;;3.10;;
59161;SDS011;44942;48.936;8.260;2023-04-03T13:33:59;3.38;;;2.72;;
59161;SDS011;44942;48.936;8.260;2023-04-03T13:54:36;3.15;;;2.58;;
59161;SDS011;44942;48.936;8.260;2023-04-03T13:59:38;2.80;;;2.53;;
59161;SDS011;44942;48.936;8.260;2023-04-03T14:04:47;2.80;;;2.60;;
59161;SDS011;44942;48.936;8.260;2023-04-03T14:09:58;6.10;;;2.78;;
59161;SDS011;44942;48.936;8.260;2023-04-03T14:15:02;3.07;;;2.60;;
59161;SDS011;44942;48.936;8.260;2023-04-03T14:20:05;3.38;;;3.00;;
59161;SDS011;44942;48.936;8.260;2023-04-03T14:25:06;3.30;;;2.78;;
59161;SDS011;44942;48.936;8.260;2023-04-03T14:30:09;2.85;;;2.63;;
59161;SDS011;44942;48.936;8.260;2023-04-03T14:35:21;2.73;;;2.43;;
59161;SDS011;44942;48.936;8.260;2023-04-03T14:40:24;2.97;;;2.63;;
59161;SDS011;44942;48.936;8.260;2023-04-03T14:45:27;3.20;;;2.88;;
59161;SDS011;44942;48.936;8.260;2023-04-03T14:50:27;3.00;;;2.75;;
59161;SDS011;44942;48.936;8.260;2023-04-03T14:55:31;2.78;;;2.58;;
59161;SDS011;44942;48.936;8.260;2023-04-03T15:00:31;3.40;;;2.57;;
59161;SDS011;44942;48.936;8.260;2023-04-03T15:05:32;4.30;;;2.70;;
59161;SDS011;44942;48.936;8.260;2023-04-03T15:10:35;2.70;;;2.50;;
59161;SDS011;44942;48.936;8.260;2023-04-03T15:15:35;2.97;;;2.70;;
59161;SDS011;44942;48.936;8.260;2023-04-03T15:25:37;2.77;;;2.50;;
59161;SDS011;44942;48.936;8.260;2023-04-03T15:30:39;3.50;;;2.80;;
59161;SDS011;44942;48.936;8.260;2023-04-03T15:35:40;3.67;;;2.50;;
59161;SDS011;44942;48.936;8.260;2023-04-03T15:40:41;2.80;;;2.60;;
59161;SDS011;44942;48.936;8.260;2023-04-03T15:45:43;5.00;;;2.75;;
59161;SDS011;44942;48.936;8.260;2023-04-03T15:55:45;8.43;;;4.47;;
59161;SDS011;44942;48.936;8.260;2023-04-03T16:00:46;8.03;;;5.23;;
59161;SDS011;44942;48.936;8.260;2023-04-03T16:05:46;9.93;;;5.50;;
59161;SDS011;44942;48.936;8.260;2023-04-03T16:10:47;10.98;;;5.63;;
59161;SDS011;44942;48.936;8.260;2023-04-03T16:15:48;9.17;;;5.70;;
59161;SDS011;44942;48.936;8.260;2023-04-03T16:20:49;7.80;;;5.10;;
59161;SDS011;44942;48.936;8.260;2023-04-03T16:25:50;9.80;;;5.00;;
59161;SDS011;44942;48.936;8.260;2023-04-03T16:30:51;9.38;;;5.40;;
59161;SDS011;44942;48.936;8.260;2023-04-03T16:35:51;6.32;;;4.70;;
59161;SDS011;44942;48.936;8.260;2023-04-03T16:40:52;8.83;;;4.40;;
59161;SDS011;44942;48.936;8.260;2023-04-03T16:45:56;7.78;;;4.00;;
59161;SDS011;44942;48.936;8.260;2023-04-03T16:55:58;6.07;;;4.10;;
59161;SDS011;44942;48.936;8.260;2023-04-03T17:01:07;6.63;;;3.67;;
59161;SDS011;44942;48.936;8.260;2023-04-03T17:06:16;6.07;;;3.40;;
59161;SDS011;44942;48.936;8.260;2023-04-03T17:11:18;7.25;;;3.53;;
59161;SDS011;44942;48.936;8.260;2023-04-03T17:16:20;6.22;;;3.50;;
59161;SDS011;44942;48.936;8.260;2023-04-03T17:21:21;8.20;;;3.40;;
59161;SDS011;44942;48.936;8.260;2023-04-03T17:26:22;6.10;;;3.35;;
59161;SDS011;44942;48.936;8.260;2023-04-03T17:31:25;6.22;;;3.17;;
59161;SDS011;44942;48.936;8.260;2023-04-03T17:36:29;5.47;;;3.00;;
59161;SDS011;44942;48.936;8.260;2023-04-03T17:41:30;4.43;;;3.22;;
59161;SDS011;44942;48.936;8.260;2023-04-03T17:46:31;5.97;;;3.20;;
59161;SDS011;44942;48.936;8.260;2023-04-03T17:51:32;6.47;;;3.17;;
59161;SDS011;44942;48.936;8.260;2023-04-03T17:56:33;4.53;;;2.50;;
59161;SDS011;44942;48.936;8.260;2023-04-03T18:01:34;4.33;;;2.70;;
59161;SDS011;44942;48.936;8.260;2023-04-03T18:06:44;5.70;;;2.83;;
59161;SDS011;44942;48.936;8.260;2023-04-03T18:11:47;5.68;;;2.83;;
59161;SDS011;44942;48.936;8.260;2023-04-03T18:21:50;7.07;;;2.67;;
59161;SDS011;44942;48.936;8.260;2023-04-03T18:27:06;4.38;;;2.35;;
59161;SDS011;44942;48.936;8.260;2023-04-03T18:32:11;4.47;;;2.47;;
59161;SDS011;44942;48.936;8.260;2023-04-03T18:37:14;4.20;;;2.47;;
59161;SDS011;44942;48.936;8.260;2023-04-03T18:42:16;3.33;;;2.38;;
59161;SDS011;44942;48.936;8.260;2023-04-03T18:47:19;3.38;;;2.30;;
59161;SDS011;44942;48.936;8.260;2023-04-03T18:52:19;3.53;;;2.38;;
59161;SDS011;44942;48.936;8.260;2023-04-03T18:57:20;7.53;;;2.60;;
59161;SDS011;44942;48.936;8.260;2023-04-03T19:02:21;6.43;;;2.40;;
59161;SDS011;44942;48.936;8.260;2023-04-03T19:07:24;2.75;;;2.20;;
59161;SDS011;44942;48.936;8.260;2023-04-03T19:12:25;4.60;;;2.30;;
59161;SDS011;44942;48.936;8.260;2023-04-03T19:17:26;4.57;;;2.60;;
59161;SDS011;44942;48.936;8.260;2023-04-03T19:27:29;3.08;;;2.33;;
59161;SDS011;44942;48.936;8.260;2023-04-03T19:32:30;3.00;;;2.45;;
59161;SDS011;44942;48.936;8.260;2023-04-03T19:37:30;7.33;;;2.60;;
59161;SDS011;44942;48.936;8.260;2023-04-03T19:42:31;16.33;;;2.30;;
59161;SDS011;44942;48.936;8.260;2023-04-03T19:47:33;10.82;;;2.47;;
59161;SDS011;44942;48.936;8.260;2023-04-03T19:52:34;9.32;;;2.35;;
59161;SDS011;44942;48.936;8.260;2023-04-03T19:57:35;8.03;;;2.37;;
59161;SDS011;44942;48.936;8.260;2023-04-03T20:02:35;3.10;;;1.90;;
59161;SDS011;44942;48.936;8.260;2023-04-03T20:07:36;6.27;;;2.30;;
59161;SDS011;44942;48.936;8.260;2023-04-03T20:12:37;5.33;;;2.20;;
59161;SDS011;44942;48.936;8.260;2023-04-03T20:17:38;2.90;;;2.30;;
59161;SDS011;44942;48.936;8.260;2023-04-03T20:22:39;3.00;;;2.20;;
59161;SDS011;44942;48.936;8.260;2023-04-03T20:27:40;2.85;;;2.30;;
59161;SDS011;44942;48.936;8.260;2023-04-03T20:32:40;4.50;;;2.23;;
59161;SDS011;44942;48.936;8.260;2023-04-03T20:37:41;3.72;;;2.42;;
59161;SDS011;44942;48.936;8.260;2023-04-03T20:42:42;11.57;;;2.50;;
59161;SDS011;44942;48.936;8.260;2023-04-03T20:47:43;2.50;;;1.97;;
59161;SDS011;44942;48.936;8.260;2023-04-03T20:52:43;2.75;;;2.00;;
59161;SDS011;44942;48.936;8.260;2023-04-03T20:57:44;2.83;;;2.17;;
59161;SDS011;44942;48.936;8.260;2023-04-03T21:02:45;2.72;;;2.10;;
59161;SDS011;44942;48.936;8.260;2023-04-03T21:24:09;2.60;;;2.10;;
59161;SDS011;44942;48.936;8.260;2023-04-03T21:29:10;2.90;;;2.00;;
59161;SDS011;44942;48.936;8.260;2023-04-03T21:34:11;3.40;;;1.80;;
59161;SDS011;44942;48.936;8.260;2023-04-03T21:39:12;2.58;;;2.00;;
59161;SDS011;44942;48.936;8.260;2023-04-03T21:44:13;2.47;;;1.90;;
59161;SDS011;44942;48.936;8.260;2023-04-03T21:49:14;3.03;;;1.80;;
59161;SDS011;44942;48.936;8.260;2023-04-03T21:54:15;3.35;;;2.20;;
59161;SDS011;44942;48.936;8.260;2023-04-03T21:59:16;2.63;;;2.07;;
59161;SDS011;44942;48.936;8.260;2023-04-03T22:04:16;2.35;;;2.00;;
59161;SDS011;44942;48.936;8.260;2023-04-03T22:09:17;2.70;;;1.80;;
59161;SDS011;44942;48.936;8.260;2023-04-03T22:14:17;2.20;;;1.80;;
59161;SDS011;44942;48.936;8.260;2023-04-03T22:19:18;4.20;;;1.80;;
59161;SDS011;44942;48.936;8.260;2023-04-03T22:24:19;2.83;;;1.87;;
59161;SDS011;44942;48.936;8.260;2023-04-03T22:29:19;3.38;;;2.10;;
59161;SDS011;44942;48.936;8.260;2023-04-03T22:34:20;3.27;;;2.00;;
59161;SDS011;44942;48.936;8.260;2023-04-03T22:39:22;2.90;;;2.10;;
59161;SDS011;44942;48.936;8.260;2023-04-03T22:44:22;3.37;;;1.80;;
59161;SDS011;44942;48.936;8.260;2023-04-03T22:49:23;2.10;;;1.90;;
59161;SDS011;44942;48.936;8.260;2023-04-03T22:54:23;2.23;;;1.93;;
59161;SDS011;44942;48.936;8.260;2023-04-03T22:59:24;2.23;;;2.03;;
59161;SDS011;44942;48.936;8.260;2023-04-03T23:04:25;2.00;;;1.90;;
59161;SDS011;44942;48.936;8.260;2023-04-03T23:09:25;2.43;;;2.17;;
59161;SDS011;44942;48.936;8.260;2023-04-03T23:14:26;2.03;;;1.63;;
59161;SDS011;44942;48.936;8.260;2023-04-03T23:19:26;2.47;;;2.00;;
59161;SDS011;44942;48.936;8.260;2023-04-03T23:24:27;1.80;;;1.70;;
59161;SDS011;44942;48.936;8.260;2023-04-03T23:29:28;2.38;;;2.17;;
59161;SDS011;44942;48.936;8.260;2023-04-03T23:34:28;2.30;;;1.80;;
59161;SDS011;44942;48.936;8.260;2023-04-03T23:39:29;3.03;;;1.83;;
59161;SDS011;44942;48.936;8.260;2023-04-03T23:44:30;1.60;;;1.50;;
59161;SDS011;44942;48.936;8.260;2023-04-03T23:49:30;2.67;;;1.80;;
59161;SDS011;44942;48.936;8.260;2023-04-03T23:54:31;1.90;;;1.70;;
59161;SDS011;44942;48.936;8.260;2023-04-03T23:59:31;2.23;;;1.93;;
